createdAt,value
2022-07-25T00:00:30.114Z,22.95
2022-07-25T00:01:26.946Z,23.05
2022-07-25T00:02:27.370Z,23.01
2022-07-25T00:03:24.066Z,23.10
2022-07-25T00:04:20.785Z,23.15
2022-07-25T00:05:19.039Z,23.23
2022-07-25T00:06:17.857Z,23.06
2022-07-25T00:07:14.708Z,23.00
2022-07-25T00:08:11.343Z,23.07
2022-07-25T00:09:08.240Z,23.07
2022-07-25T00:10:05.324Z,23.24
2022-07-25T00:11:02.035Z,23.26
2022-07-25T00:11:58.706Z,23.09
2022-07-25T00:12:55.346Z,23.27
2022-07-25T00:13:52.141Z,23.20
2022-07-25T00:14:48.813Z,23.21
2022-07-25T00:15:45.457Z,23.06
2022-07-25T00:16:42.096Z,23.06
2022-07-25T00:17:40.511Z,23.07
2022-07-25T00:18:37.220Z,22.94
2022-07-25T00:19:33.926Z,22.98
2022-07-25T00:20:30.568Z,22.96
2022-07-25T00:21:27.236Z,22.86
2022-07-25T00:22:23.839Z,22.86
2022-07-25T00:23:20.509Z,22.83
2022-07-25T00:24:17.193Z,22.81
2022-07-25T00:25:14.111Z,22.82
2022-07-25T00:26:10.715Z,22.75
2022-07-25T00:27:07.359Z,22.73
2022-07-25T00:28:04.249Z,22.83
2022-07-25T00:29:01.602Z,22.77
2022-07-25T00:29:58.439Z,22.77
2022-07-25T00:30:55.167Z,22.75
2022-07-25T00:31:52.373Z,22.87
2022-07-25T00:32:48.995Z,22.78
2022-07-25T00:33:45.638Z,22.94
2022-07-25T00:34:42.995Z,23.02
2022-07-25T00:35:39.791Z,23.27
2022-07-25T00:36:39.181Z,23.14
2022-07-25T00:37:35.884Z,23.16
2022-07-25T00:38:32.498Z,23.16
2022-07-25T00:39:29.155Z,23.04
2022-07-25T00:40:25.817Z,22.96
2022-07-25T00:41:22.564Z,22.91
2022-07-25T00:42:19.192Z,22.88
2022-07-25T00:43:15.854Z,22.94
2022-07-25T00:44:26.303Z,22.80
2022-07-25T00:45:23.033Z,22.59
2022-07-25T00:46:19.669Z,22.64
2022-07-25T00:47:17.307Z,22.48
2022-07-25T00:48:13.976Z,22.71
2022-07-25T00:49:10.617Z,22.65
2022-07-25T00:50:07.896Z,22.49
2022-07-25T00:51:04.924Z,22.60
2022-07-25T00:52:01.838Z,22.33
2022-07-25T00:52:58.591Z,22.58
2022-07-25T00:53:57.479Z,22.62
2022-07-25T00:54:54.601Z,22.45
2022-07-25T00:55:51.762Z,22.25
2022-07-25T00:56:49.478Z,22.12
2022-07-25T00:57:46.150Z,22.13
2022-07-25T00:58:45.576Z,22.07
2022-07-25T00:59:42.527Z,21.95
2022-07-25T01:00:39.345Z,21.98
2022-07-25T01:01:37.634Z,21.74
2022-07-25T01:02:34.473Z,21.91
2022-07-25T01:03:31.270Z,22.00
2022-07-25T01:04:29.003Z,22.07
2022-07-25T01:05:25.710Z,22.09
2022-07-25T01:06:24.760Z,22.14
2022-07-25T01:07:21.902Z,22.13
2022-07-25T01:08:19.877Z,22.13
2022-07-25T01:09:16.775Z,21.96
2022-07-25T01:10:13.418Z,21.92
2022-07-25T01:11:10.506Z,21.99
2022-07-25T01:12:07.443Z,22.09
2022-07-25T01:13:04.330Z,22.11
2022-07-25T01:14:01.003Z,21.93
2022-07-25T01:14:58.318Z,21.99
2022-07-25T01:15:55.229Z,22.09
2022-07-25T01:16:52.172Z,22.26
2022-07-25T01:17:49.506Z,22.27
2022-07-25T01:18:46.193Z,22.26
2022-07-25T01:19:43.370Z,22.08
2022-07-25T01:20:40.051Z,22.35
2022-07-25T01:21:40.807Z,22.42
2022-07-25T01:22:37.409Z,22.46
2022-07-25T01:23:34.248Z,22.55
2022-07-25T01:24:30.890Z,22.58
2022-07-25T01:25:28.045Z,22.50
2022-07-25T01:26:24.725Z,22.53
2022-07-25T01:27:21.325Z,22.58
2022-07-25T01:28:18.402Z,22.60
2022-07-25T01:29:15.020Z,22.52
2022-07-25T01:30:14.615Z,22.65
2022-07-25T01:31:11.293Z,22.56
2022-07-25T01:32:07.989Z,22.41
2022-07-25T01:33:06.988Z,22.59
2022-07-25T01:34:04.326Z,22.60
2022-07-25T01:35:01.734Z,22.60
2022-07-25T01:35:58.419Z,22.55
2022-07-25T01:36:55.041Z,22.65
2022-07-25T01:37:51.865Z,22.72
2022-07-25T01:38:48.579Z,22.59
2022-07-25T01:39:45.178Z,22.63
2022-07-25T01:40:42.780Z,22.66
2022-07-25T01:41:39.529Z,22.64
2022-07-25T01:42:36.154Z,22.74
2022-07-25T01:43:33.054Z,22.60
2022-07-25T01:44:29.663Z,22.79
2022-07-25T01:45:26.385Z,22.78
2022-07-25T01:46:23.074Z,22.71
2022-07-25T01:47:19.787Z,22.68
2022-07-25T01:48:16.481Z,22.59
2022-07-25T01:49:13.852Z,22.63
2022-07-25T01:50:11.045Z,22.64
2022-07-25T01:51:10.470Z,22.65
2022-07-25T01:52:07.714Z,22.65
2022-07-25T01:53:04.711Z,22.71
2022-07-25T01:54:01.289Z,22.72
2022-07-25T01:55:00.101Z,22.79
2022-07-25T01:55:57.519Z,22.86
2022-07-25T01:56:54.208Z,22.78
2022-07-25T01:57:50.946Z,22.75
2022-07-25T01:58:48.835Z,22.72
2022-07-25T01:59:45.466Z,22.71
2022-07-25T02:00:42.132Z,22.71
2022-07-25T02:01:39.017Z,22.62
2022-07-25T02:02:35.736Z,22.54
2022-07-25T02:03:32.473Z,22.36
2022-07-25T02:04:29.370Z,22.46
2022-07-25T02:05:26.134Z,22.45
2022-07-25T02:06:22.798Z,22.56
2022-07-25T02:07:19.605Z,22.45
2022-07-25T02:08:16.306Z,22.47
2022-07-25T02:09:13.907Z,22.38
2022-07-25T02:10:10.600Z,22.35
2022-07-25T02:11:07.295Z,22.26
2022-07-25T02:12:04.347Z,22.10
2022-07-25T02:13:01.976Z,22.06
2022-07-25T02:13:58.606Z,21.99
2022-07-25T02:14:55.234Z,22.07
2022-07-25T02:15:52.038Z,22.29
2022-07-25T02:16:49.038Z,21.95
2022-07-25T02:17:45.694Z,21.83
2022-07-25T02:18:42.338Z,21.94
2022-07-25T02:19:39.205Z,21.77
2022-07-25T02:20:36.276Z,21.76
2022-07-25T02:21:32.929Z,21.69
2022-07-25T02:22:29.605Z,21.84
2022-07-25T02:23:26.341Z,22.01
2022-07-25T02:24:22.991Z,22.11
2022-07-25T02:25:19.684Z,22.08
2022-07-25T02:26:16.335Z,22.00
2022-07-25T02:27:12.990Z,21.91
2022-07-25T02:28:10.607Z,21.79
2022-07-25T02:29:07.561Z,21.74
2022-07-25T02:30:05.521Z,21.96
2022-07-25T02:31:02.256Z,22.17
2022-07-25T02:31:58.983Z,21.83
2022-07-25T02:32:55.619Z,21.81
2022-07-25T02:33:52.260Z,22.01
2022-07-25T02:34:48.909Z,21.80
2022-07-25T02:35:45.764Z,21.92
2022-07-25T02:36:42.462Z,21.86
2022-07-25T02:37:39.129Z,21.78
2022-07-25T02:38:35.771Z,21.95
2022-07-25T02:39:32.367Z,21.88
2022-07-25T02:40:29.133Z,21.70
2022-07-25T02:41:25.892Z,21.51
2022-07-25T02:42:22.635Z,21.30
2022-07-25T02:43:20.178Z,21.16
2022-07-25T02:44:16.821Z,21.08
2022-07-25T02:45:14.024Z,20.97
2022-07-25T02:46:10.895Z,20.91
2022-07-25T02:47:07.593Z,20.79
2022-07-25T02:48:04.903Z,21.14
2022-07-25T02:49:01.906Z,21.23
2022-07-25T02:49:58.605Z,21.37
2022-07-25T02:50:55.280Z,21.42
2022-07-25T02:51:52.174Z,21.10
2022-07-25T02:52:48.815Z,20.90
2022-07-25T02:53:57.174Z,20.85
2022-07-25T02:54:55.103Z,20.83
2022-07-25T02:55:51.741Z,20.66
2022-07-25T02:56:49.763Z,20.80
2022-07-25T02:57:46.385Z,20.76
2022-07-25T02:58:43.057Z,20.83
2022-07-25T02:59:39.736Z,21.00
2022-07-25T03:00:37.145Z,21.06
2022-07-25T03:01:33.898Z,20.92
2022-07-25T03:02:30.632Z,20.98
2022-07-25T03:03:27.340Z,20.75
2022-07-25T03:04:24.753Z,20.73
2022-07-25T03:05:21.403Z,20.89
2022-07-25T03:06:18.282Z,20.77
2022-07-25T03:07:14.965Z,20.89
2022-07-25T03:08:11.603Z,20.92
2022-07-25T03:09:08.208Z,20.97
2022-07-25T03:10:08.629Z,20.84
2022-07-25T03:11:07.777Z,20.65
2022-07-25T03:12:04.861Z,20.53
2022-07-25T03:13:01.492Z,20.70
2022-07-25T03:13:58.071Z,20.75
2022-07-25T03:14:54.699Z,20.78
2022-07-25T03:15:51.526Z,20.85
2022-07-25T03:16:48.676Z,20.73
2022-07-25T03:17:45.320Z,20.74
2022-07-25T03:18:41.908Z,20.85
2022-07-25T03:19:38.521Z,20.82
2022-07-25T03:20:35.189Z,20.87
2022-07-25T03:21:31.830Z,20.82
2022-07-25T03:22:28.453Z,20.65
2022-07-25T03:23:27.182Z,20.55
2022-07-25T03:24:23.850Z,20.32
2022-07-25T03:25:21.659Z,20.29
2022-07-25T03:26:18.672Z,20.23
2022-07-25T03:27:15.432Z,20.22
2022-07-25T03:28:12.083Z,20.16
2022-07-25T03:29:08.751Z,20.46
2022-07-25T03:30:06.045Z,20.77
2022-07-25T03:31:04.873Z,20.93
2022-07-25T03:32:01.731Z,20.79
2022-07-25T03:32:58.452Z,20.72
2022-07-25T03:33:55.147Z,20.48
2022-07-25T03:34:51.746Z,20.63
2022-07-25T03:35:48.527Z,20.73
2022-07-25T03:36:45.231Z,20.67
2022-07-25T03:37:42.682Z,20.70
2022-07-25T03:38:39.562Z,20.69
2022-07-25T03:39:36.252Z,20.64
2022-07-25T03:40:32.963Z,20.57
2022-07-25T03:41:29.785Z,20.40
2022-07-25T03:42:26.857Z,20.31
2022-07-25T03:43:23.563Z,20.33
2022-07-25T03:44:21.262Z,20.38
2022-07-25T03:45:18.018Z,20.27
2022-07-25T03:46:14.871Z,20.23
2022-07-25T03:47:20.604Z,20.41
2022-07-25T03:48:17.691Z,20.25
2022-07-25T03:49:14.371Z,20.42
2022-07-25T03:50:11.524Z,20.40
2022-07-25T03:51:08.603Z,20.46
2022-07-25T03:52:05.736Z,20.44
2022-07-25T03:53:02.335Z,20.46
2022-07-25T03:54:01.863Z,20.46
2022-07-25T03:54:58.571Z,20.80
2022-07-25T03:55:55.188Z,20.93
2022-07-25T03:56:52.524Z,20.72
2022-07-25T03:57:49.143Z,20.84
2022-07-25T03:58:45.754Z,20.65
2022-07-25T03:59:42.423Z,20.51
2022-07-25T04:00:39.165Z,20.53
2022-07-25T04:01:36.099Z,20.39
2022-07-25T04:02:33.349Z,20.42
2022-07-25T04:03:30.078Z,20.47
2022-07-25T04:04:26.703Z,20.51
2022-07-25T04:05:23.385Z,20.52
2022-07-25T04:06:20.256Z,20.53
2022-07-25T04:07:17.079Z,20.61
2022-07-25T04:08:14.108Z,20.68
2022-07-25T04:09:11.205Z,20.81
2022-07-25T04:10:08.476Z,20.77
2022-07-25T04:11:05.278Z,20.81
2022-07-25T04:12:01.998Z,20.86
2022-07-25T04:12:58.626Z,20.93
2022-07-25T04:13:55.355Z,20.68
2022-07-25T04:14:52.051Z,20.87
2022-07-25T04:15:48.803Z,20.97
2022-07-25T04:16:45.445Z,21.05
2022-07-25T04:17:42.163Z,21.25
2022-07-25T04:18:39.191Z,21.41
2022-07-25T04:19:36.764Z,21.48
2022-07-25T04:20:33.470Z,21.64
2022-07-25T04:21:30.280Z,21.72
2022-07-25T04:22:27.103Z,21.73
2022-07-25T04:23:23.750Z,21.52
2022-07-25T04:24:20.464Z,21.61
2022-07-25T04:25:17.982Z,21.55
2022-07-25T04:26:14.659Z,21.67
2022-07-25T04:27:11.279Z,21.71
2022-07-25T04:28:07.920Z,21.78
2022-07-25T04:29:04.638Z,21.94
2022-07-25T04:30:01.310Z,22.03
2022-07-25T04:30:58.133Z,22.03
2022-07-25T04:31:55.134Z,22.05
2022-07-25T04:32:52.508Z,22.07
2022-07-25T04:33:49.163Z,22.17
2022-07-25T04:34:45.920Z,22.13
2022-07-25T04:35:43.328Z,22.31
2022-07-25T04:36:39.985Z,22.27
2022-07-25T04:37:37.527Z,22.38
2022-07-25T04:38:34.503Z,22.42
2022-07-25T04:39:31.397Z,22.44
2022-07-25T04:40:28.321Z,22.43
2022-07-25T04:41:24.947Z,22.50
2022-07-25T04:42:21.651Z,22.55
2022-07-25T04:43:20.424Z,22.49
2022-07-25T04:44:17.135Z,22.67
2022-07-25T04:45:14.154Z,22.76
2022-07-25T04:46:19.085Z,22.53
2022-07-25T04:47:15.727Z,22.84
2022-07-25T04:48:12.361Z,22.92
2022-07-25T04:49:09.108Z,23.01
2022-07-25T04:50:06.283Z,22.97
2022-07-25T04:51:03.016Z,22.94
2022-07-25T04:51:59.668Z,22.98
2022-07-25T04:52:56.447Z,22.97
2022-07-25T04:53:53.078Z,22.85
2022-07-25T04:54:49.805Z,22.83
2022-07-25T04:55:46.496Z,22.85
2022-07-25T04:56:43.192Z,22.88
2022-07-25T04:57:39.914Z,22.82
2022-07-25T04:58:36.766Z,22.87
2022-07-25T04:59:33.395Z,22.90
2022-07-25T05:00:31.667Z,22.90
2022-07-25T05:01:28.476Z,23.01
2022-07-25T05:02:26.147Z,22.77
2022-07-25T05:03:23.006Z,23.11
2022-07-25T05:04:19.591Z,23.07
2022-07-25T05:05:21.397Z,23.22
2022-07-25T05:06:19.682Z,23.25
2022-07-25T05:07:16.345Z,23.26
2022-07-25T05:08:13.117Z,23.42
2022-07-25T05:09:10.698Z,23.35
2022-07-25T05:10:08.252Z,23.21
2022-07-25T05:11:05.008Z,23.28
2022-07-25T05:12:01.658Z,23.52
2022-07-25T05:12:58.510Z,23.60
2022-07-25T05:13:55.202Z,23.69
2022-07-25T05:14:51.876Z,23.72
2022-07-25T05:15:48.585Z,23.72
2022-07-25T05:16:45.422Z,23.89
2022-07-25T05:17:43.261Z,23.87
2022-07-25T05:18:39.908Z,24.15
2022-07-25T05:19:36.645Z,24.16
2022-07-25T05:20:33.373Z,24.21
2022-07-25T05:21:30.129Z,24.25
2022-07-25T05:22:29.061Z,24.17
2022-07-25T05:23:25.915Z,24.27
2022-07-25T05:24:23.134Z,24.19
2022-07-25T05:25:20.312Z,24.29
2022-07-25T05:26:16.948Z,24.10
2022-07-25T05:27:13.618Z,24.31
2022-07-25T05:28:10.304Z,24.42
2022-07-25T05:29:06.916Z,24.58
2022-07-25T05:30:05.988Z,24.62
2022-07-25T05:31:02.883Z,24.67
2022-07-25T05:31:59.618Z,24.57
2022-07-25T05:32:56.341Z,24.37
2022-07-25T05:33:53.002Z,24.34
2022-07-25T05:34:49.742Z,24.63
2022-07-25T05:35:46.339Z,24.69
2022-07-25T05:36:47.078Z,24.74
2022-07-25T05:37:43.971Z,24.54
2022-07-25T05:38:40.604Z,24.70
2022-07-25T05:39:39.865Z,24.70
2022-07-25T05:40:36.533Z,24.82
2022-07-25T05:41:33.210Z,24.86
2022-07-25T05:42:30.292Z,25.02
2022-07-25T05:43:26.985Z,24.97
2022-07-25T05:44:23.806Z,25.02
2022-07-25T05:45:20.532Z,25.11
2022-07-25T05:46:17.285Z,24.83
2022-07-25T05:47:14.100Z,25.25
2022-07-25T05:48:10.862Z,25.19
2022-07-25T05:49:07.822Z,25.18
2022-07-25T05:50:04.838Z,25.09
2022-07-25T05:51:01.603Z,25.20
2022-07-25T05:51:58.186Z,25.39
2022-07-25T05:52:54.813Z,25.43
2022-07-25T05:53:51.466Z,25.33
2022-07-25T05:54:48.130Z,25.19
2022-07-25T05:55:44.842Z,25.04
2022-07-25T05:56:41.527Z,25.31
2022-07-25T05:57:38.168Z,25.34
2022-07-25T05:58:36.882Z,25.36
2022-07-25T05:59:33.478Z,25.26
2022-07-25T06:00:31.117Z,25.35
2022-07-25T06:01:27.794Z,25.56
2022-07-25T06:02:25.315Z,25.75
2022-07-25T06:03:22.290Z,25.89
2022-07-25T06:04:19.851Z,25.50
2022-07-25T06:05:18.595Z,25.74
2022-07-25T06:06:15.352Z,26.00
2022-07-25T06:07:12.034Z,26.05
2022-07-25T06:08:14.662Z,26.17
2022-07-25T06:09:11.342Z,26.10
2022-07-25T06:10:08.512Z,26.07
2022-07-25T06:11:08.225Z,26.05
2022-07-25T06:12:06.477Z,26.12
2022-07-25T06:13:05.137Z,26.10
2022-07-25T06:14:01.991Z,25.53
2022-07-25T06:14:58.607Z,25.67
2022-07-25T06:15:56.902Z,25.51
2022-07-25T06:16:53.716Z,25.59
2022-07-25T06:17:50.407Z,25.90
2022-07-25T06:18:46.998Z,25.99
2022-07-25T06:19:43.642Z,26.11
2022-07-25T06:20:40.353Z,26.48
2022-07-25T06:21:37.078Z,26.43
2022-07-25T06:22:33.742Z,26.55
2022-07-25T06:23:31.645Z,26.57
2022-07-25T06:24:28.375Z,26.40
2022-07-25T06:25:25.299Z,26.23
2022-07-25T06:26:22.009Z,26.41
2022-07-25T06:27:21.109Z,26.35
2022-07-25T06:28:19.670Z,26.55
2022-07-25T06:29:16.433Z,26.64
2022-07-25T06:30:19.725Z,26.97
2022-07-25T06:31:17.516Z,26.97
2022-07-25T06:32:14.432Z,26.53
2022-07-25T06:33:11.939Z,26.43
2022-07-25T06:34:09.163Z,26.64
2022-07-25T06:35:06.767Z,26.64
2022-07-25T06:36:05.826Z,26.16
2022-07-25T06:37:02.495Z,26.48
2022-07-25T06:37:59.169Z,26.61
2022-07-25T06:38:55.849Z,26.92
2022-07-25T06:39:52.912Z,27.23
2022-07-25T06:40:49.804Z,26.88
2022-07-25T06:41:46.446Z,27.07
2022-07-25T06:42:45.237Z,27.40
2022-07-25T06:43:42.780Z,27.47
2022-07-25T06:44:39.441Z,26.90
2022-07-25T06:45:36.067Z,27.09
2022-07-25T06:46:33.126Z,26.95
2022-07-25T06:47:35.533Z,26.68
2022-07-25T06:48:32.574Z,26.94
2022-07-25T06:49:29.484Z,27.01
2022-07-25T06:50:26.211Z,26.98
2022-07-25T06:51:24.219Z,27.31
2022-07-25T06:52:20.879Z,27.21
2022-07-25T06:53:18.250Z,27.54
2022-07-25T06:54:15.706Z,27.14
2022-07-25T06:55:14.093Z,27.45
2022-07-25T06:56:15.752Z,27.80
2022-07-25T06:57:14.175Z,28.11
2022-07-25T06:58:10.845Z,27.60
2022-07-25T06:59:07.457Z,27.86
2022-07-25T07:00:09.865Z,27.82
2022-07-25T07:01:07.117Z,27.86
2022-07-25T07:02:03.869Z,27.65
2022-07-25T07:03:02.440Z,27.34
2022-07-25T07:03:59.138Z,27.41
2022-07-25T07:04:55.751Z,27.49
2022-07-25T07:05:52.460Z,27.74
2022-07-25T07:06:49.126Z,27.71
2022-07-25T07:07:47.793Z,27.25
2022-07-25T07:08:44.805Z,27.59
2022-07-25T07:09:44.042Z,27.71
2022-07-25T07:10:40.751Z,28.09
2022-07-25T07:11:37.635Z,28.28
2022-07-25T07:12:34.294Z,27.86
2022-07-25T07:13:32.359Z,28.12
2022-07-25T07:14:29.087Z,28.11
2022-07-25T07:15:25.857Z,28.32
2022-07-25T07:16:22.553Z,28.23
2022-07-25T07:17:19.201Z,27.16
2022-07-25T07:18:17.241Z,27.39
2022-07-25T07:19:14.691Z,27.68
2022-07-25T07:20:11.916Z,27.98
2022-07-25T07:21:08.683Z,27.76
2022-07-25T07:22:13.536Z,28.01
2022-07-25T07:23:10.577Z,28.17
2022-07-25T07:24:18.512Z,28.79
2022-07-25T07:25:21.367Z,28.51
2022-07-25T07:26:18.407Z,28.20
2022-07-25T07:27:15.327Z,28.39
2022-07-25T07:28:16.864Z,28.63
2022-07-25T07:29:13.631Z,28.97
2022-07-25T07:30:11.214Z,29.31
2022-07-25T07:31:16.774Z,29.82
2022-07-25T07:32:14.040Z,29.80
2022-07-25T07:33:10.726Z,28.75
2022-07-25T07:34:07.506Z,29.21
2022-07-25T07:35:04.387Z,28.69
2022-07-25T07:36:02.204Z,28.86
2022-07-25T07:36:59.001Z,28.88
2022-07-25T07:37:55.978Z,29.06
2022-07-25T07:38:53.096Z,29.00
2022-07-25T07:39:50.251Z,29.09
2022-07-25T07:40:46.929Z,29.13
2022-07-25T07:41:44.195Z,29.66
2022-07-25T07:42:46.969Z,29.94
2022-07-25T07:43:43.648Z,29.98
2022-07-25T07:44:40.241Z,29.77
2022-07-25T07:45:36.976Z,29.36
2022-07-25T07:46:33.860Z,28.88
2022-07-25T07:47:30.573Z,28.86
2022-07-25T07:48:33.806Z,28.90
2022-07-25T07:49:30.627Z,28.86
2022-07-25T07:50:34.151Z,28.99
2022-07-25T07:51:30.827Z,29.05
2022-07-25T07:52:27.411Z,28.83
2022-07-25T07:53:43.985Z,27.93
2022-07-25T07:54:59.605Z,28.51
2022-07-25T07:55:56.264Z,29.10
2022-07-25T07:56:52.935Z,29.46
2022-07-25T07:57:49.897Z,29.37
2022-07-25T07:58:46.717Z,29.08
2022-07-25T07:59:43.339Z,28.83
2022-07-25T08:00:40.138Z,28.03
2022-07-25T08:01:36.815Z,28.27
2022-07-25T08:02:41.833Z,28.33
2022-07-25T08:03:38.525Z,28.41
2022-07-25T08:04:35.186Z,27.98
2022-07-25T08:05:34.891Z,28.22
2022-07-25T08:06:31.664Z,28.70
2022-07-25T08:07:28.275Z,29.14
2022-07-25T08:08:30.888Z,28.94
2022-07-25T08:09:28.180Z,29.14
2022-07-25T08:10:27.625Z,29.08
2022-07-25T08:11:24.282Z,29.41
2022-07-25T08:12:20.915Z,29.70
2022-07-25T08:13:19.057Z,29.83
2022-07-25T08:14:15.819Z,29.78
2022-07-25T08:15:12.536Z,29.89
2022-07-25T08:16:11.907Z,30.28
2022-07-25T08:17:08.616Z,29.40
2022-07-25T08:18:17.793Z,29.67
2022-07-25T08:19:14.892Z,30.10
2022-07-25T08:20:36.411Z,30.09
2022-07-25T08:21:28.897Z,30.26
2022-07-25T08:22:35.028Z,30.32
2022-07-25T08:23:35.589Z,30.13
2022-07-25T08:24:32.395Z,30.19
2022-07-25T08:25:29.253Z,30.20
2022-07-25T08:26:27.935Z,29.20
2022-07-25T08:27:24.669Z,28.73
2022-07-25T08:28:21.505Z,28.45
2022-07-25T08:29:20.573Z,28.86
2022-07-25T08:30:19.404Z,28.49
2022-07-25T08:31:16.164Z,29.28
2022-07-25T08:32:12.810Z,29.53
2022-07-25T08:33:13.447Z,29.32
2022-07-25T08:34:10.396Z,29.11
2022-07-25T08:35:11.401Z,29.31
2022-07-25T08:36:10.918Z,29.71
2022-07-25T08:37:07.569Z,29.80
2022-07-25T08:38:05.004Z,30.10
2022-07-25T08:39:01.708Z,30.20
2022-07-25T08:39:58.301Z,30.57
2022-07-25T08:40:56.561Z,30.21
2022-07-25T08:41:53.607Z,29.47
2022-07-25T08:42:50.795Z,29.27
2022-07-25T08:43:49.588Z,30.12
2022-07-25T08:44:59.852Z,29.64
2022-07-25T08:45:57.613Z,29.53
2022-07-25T08:46:54.942Z,29.42
2022-07-25T08:47:54.579Z,29.75
2022-07-25T08:48:52.304Z,30.85
2022-07-25T08:49:49.427Z,31.10
2022-07-25T08:50:47.177Z,30.57
2022-07-25T08:51:44.122Z,30.97
2022-07-25T08:52:47.651Z,31.12
2022-07-25T08:53:48.629Z,30.87
2022-07-25T08:54:47.834Z,31.23
2022-07-25T08:55:45.869Z,31.31
2022-07-25T08:56:42.597Z,31.32
2022-07-25T08:57:41.511Z,31.59
2022-07-25T08:58:38.145Z,31.36
2022-07-25T08:59:34.769Z,29.69
2022-07-25T09:00:31.841Z,29.42
2022-07-25T09:01:34.584Z,29.12
2022-07-25T09:02:31.890Z,29.88
2022-07-25T09:03:28.772Z,29.01
2022-07-25T09:04:26.320Z,30.12
2022-07-25T09:05:24.387Z,29.88
2022-07-25T09:06:22.402Z,30.74
2022-07-25T09:07:33.723Z,30.07
2022-07-25T09:08:30.361Z,30.10
2022-07-25T09:09:38.492Z,29.76
2022-07-25T09:10:36.162Z,30.36
2022-07-25T09:11:35.193Z,30.29
2022-07-25T09:12:31.814Z,29.54
2022-07-25T09:13:29.682Z,29.29
2022-07-25T09:14:26.952Z,28.91
2022-07-25T09:15:32.960Z,29.48
2022-07-25T09:16:34.874Z,30.50
2022-07-25T09:17:31.509Z,30.64
2022-07-25T09:18:28.383Z,29.99
2022-07-25T09:19:26.199Z,30.41
2022-07-25T09:20:23.438Z,29.93
2022-07-25T09:21:20.092Z,29.94
2022-07-25T09:22:16.803Z,30.30
2022-07-25T09:23:30.696Z,30.10
2022-07-25T09:24:28.579Z,29.87
2022-07-25T09:25:28.479Z,29.93
2022-07-25T09:26:25.622Z,29.91
2022-07-25T09:27:22.392Z,30.28
2022-07-25T09:28:19.814Z,30.76
2022-07-25T09:29:29.438Z,30.37
2022-07-25T09:30:26.083Z,29.83
2022-07-25T09:31:32.725Z,30.28
2022-07-25T09:32:29.514Z,30.42
2022-07-25T09:33:27.758Z,30.31
2022-07-25T09:34:34.580Z,30.13
2022-07-25T09:35:34.410Z,30.16
2022-07-25T09:36:31.354Z,30.20
2022-07-25T09:37:28.067Z,30.38
2022-07-25T09:38:25.483Z,30.20
2022-07-25T09:39:33.282Z,29.42
2022-07-25T09:40:29.956Z,29.62
2022-07-25T09:41:41.002Z,29.83
2022-07-25T09:42:37.677Z,30.59
2022-07-25T09:43:44.610Z,30.01
2022-07-25T09:44:41.605Z,30.51
2022-07-25T09:45:49.146Z,30.99
2022-07-25T09:46:46.060Z,29.82
2022-07-25T09:47:56.843Z,30.50
2022-07-25T09:48:58.259Z,30.34
2022-07-25T09:49:55.520Z,29.63
2022-07-25T09:50:52.482Z,29.46
2022-07-25T09:51:49.555Z,29.21
2022-07-25T09:52:46.617Z,29.75
2022-07-25T09:53:43.340Z,30.92
2022-07-25T09:54:40.732Z,30.46
2022-07-25T09:55:37.419Z,30.81
2022-07-25T09:56:35.817Z,31.21
2022-07-25T09:57:32.470Z,30.49
2022-07-25T09:58:29.775Z,30.67
2022-07-25T09:59:26.638Z,29.91
2022-07-25T10:00:26.602Z,30.77
2022-07-25T10:01:34.298Z,31.36
2022-07-25T10:02:49.630Z,30.95
2022-07-25T10:03:53.795Z,30.15
2022-07-25T10:05:09.098Z,29.75
2022-07-25T10:06:11.975Z,30.41
2022-07-25T10:07:10.577Z,31.32
2022-07-25T10:08:08.757Z,30.82
2022-07-25T10:09:12.346Z,31.02
2022-07-25T10:10:09.215Z,31.27
2022-07-25T10:11:17.859Z,31.10
2022-07-25T10:12:19.276Z,30.12
2022-07-25T10:13:18.196Z,30.58
2022-07-25T10:14:14.863Z,30.65
2022-07-25T10:15:13.837Z,30.51
2022-07-25T10:16:18.884Z,29.90
2022-07-25T10:17:21.677Z,30.81
2022-07-25T10:18:21.315Z,30.47
2022-07-25T10:19:36.164Z,30.42
2022-07-25T10:20:32.859Z,30.79
2022-07-25T10:21:29.819Z,31.10
2022-07-25T10:22:57.265Z,30.06
2022-07-25T10:24:08.438Z,30.50
2022-07-25T10:25:17.465Z,30.02
2022-07-25T10:26:19.682Z,30.04
2022-07-25T10:27:23.087Z,29.94
2022-07-25T10:28:20.773Z,30.57
2022-07-25T10:29:17.484Z,29.90
2022-07-25T10:30:21.452Z,30.37
2022-07-25T10:31:33.905Z,30.39
2022-07-25T10:32:35.319Z,30.55
2022-07-25T10:33:42.040Z,30.11
2022-07-25T10:34:39.957Z,29.94
2022-07-25T10:35:36.828Z,30.22
2022-07-25T10:36:48.850Z,29.75
2022-07-25T10:37:49.150Z,30.26
2022-07-25T10:38:46.634Z,30.46
2022-07-25T10:39:45.137Z,30.16
2022-07-25T10:40:44.230Z,30.10
2022-07-25T10:41:43.234Z,30.32
2022-07-25T10:42:45.869Z,30.54
2022-07-25T10:43:48.701Z,30.23
2022-07-25T10:44:48.708Z,30.51
2022-07-25T10:45:48.502Z,30.94
2022-07-25T10:46:45.490Z,31.82
2022-07-25T10:47:54.041Z,31.42
2022-07-25T10:49:07.608Z,30.95
2022-07-25T10:50:21.887Z,30.75
2022-07-25T10:51:27.298Z,30.86
2022-07-25T10:52:28.550Z,30.49
2022-07-25T10:53:34.112Z,30.29
2022-07-25T10:54:38.934Z,30.86
2022-07-25T10:55:36.766Z,30.84
2022-07-25T10:56:36.864Z,30.73
2022-07-25T10:57:34.477Z,30.08
2022-07-25T10:58:52.120Z,31.30
2022-07-25T10:59:49.074Z,30.63
2022-07-25T11:00:45.669Z,31.08
2022-07-25T11:01:44.894Z,30.65
2022-07-25T11:02:42.695Z,30.24
2022-07-25T11:03:41.578Z,30.45
2022-07-25T11:04:38.198Z,30.25
2022-07-25T11:05:44.711Z,31.24
2022-07-25T11:06:43.192Z,31.66
2022-07-25T11:08:18.993Z,30.45
2022-07-25T11:09:26.475Z,31.17
2022-07-25T11:10:28.195Z,31.72
2022-07-25T11:11:39.833Z,31.84
2022-07-25T11:12:37.487Z,31.13
2022-07-25T11:13:39.318Z,30.94
2022-07-25T11:14:41.370Z,30.50
2022-07-25T11:15:38.574Z,30.50
2022-07-25T11:16:35.338Z,31.78
2022-07-25T11:17:32.551Z,30.93
2022-07-25T11:18:33.374Z,31.38
2022-07-25T11:19:30.020Z,30.59
2022-07-25T11:20:27.572Z,30.64
2022-07-25T11:21:24.457Z,30.46
2022-07-25T11:22:21.439Z,31.30
2022-07-25T11:23:22.013Z,30.99
2022-07-25T11:24:18.832Z,31.84
2022-07-25T11:25:15.623Z,32.03
2022-07-25T11:26:13.378Z,31.95
2022-07-25T11:27:12.804Z,30.74
2022-07-25T11:28:10.090Z,31.12
2022-07-25T11:29:07.297Z,31.07
2022-07-25T11:30:07.278Z,31.03
2022-07-25T11:31:05.254Z,32.14
2022-07-25T11:32:04.952Z,31.41
2022-07-25T11:33:04.375Z,31.46
2022-07-25T11:34:01.535Z,32.09
2022-07-25T11:34:58.301Z,30.92
2022-07-25T11:35:56.527Z,30.90
2022-07-25T11:36:57.195Z,31.79
2022-07-25T11:37:54.740Z,31.71
2022-07-25T11:38:51.496Z,31.36
2022-07-25T11:39:49.097Z,31.47
2022-07-25T11:40:46.642Z,31.19
2022-07-25T11:41:43.381Z,30.62
2022-07-25T11:42:46.014Z,30.64
2022-07-25T11:43:49.071Z,30.75
2022-07-25T11:44:47.959Z,31.32
2022-07-25T11:45:55.808Z,31.42
2022-07-25T11:46:52.693Z,31.83
2022-07-25T11:48:01.764Z,31.25
2022-07-25T11:49:06.939Z,30.56
2022-07-25T11:50:05.333Z,30.58
2022-07-25T11:51:13.735Z,30.67
2022-07-25T11:52:27.562Z,30.58
2022-07-25T11:53:26.046Z,30.92
2022-07-25T11:54:22.844Z,30.96
2022-07-25T11:55:19.616Z,31.13
2022-07-25T11:56:41.765Z,30.48
2022-07-25T11:57:37.593Z,31.84
2022-07-25T11:58:34.258Z,31.67
2022-07-25T11:59:41.908Z,31.85
2022-07-25T12:00:45.538Z,31.79
2022-07-25T12:01:44.089Z,31.59
2022-07-25T12:02:40.831Z,31.62
2022-07-25T12:03:39.016Z,32.03
2022-07-25T12:04:35.765Z,32.30
2022-07-25T12:05:33.519Z,32.52
2022-07-25T12:06:30.266Z,31.19
2022-07-25T12:07:53.611Z,30.91
2022-07-25T12:08:50.266Z,30.32
2022-07-25T12:09:56.692Z,31.06
2022-07-25T12:10:55.309Z,31.28
2022-07-25T12:12:03.195Z,31.63
2022-07-25T12:13:02.568Z,31.76
2022-07-25T12:14:06.306Z,32.00
2022-07-25T12:15:03.306Z,32.76
2022-07-25T12:16:00.353Z,32.68
2022-07-25T12:16:57.099Z,31.87
2022-07-25T12:17:55.456Z,31.90
2022-07-25T12:18:52.120Z,32.00
2022-07-25T12:19:48.771Z,31.96
2022-07-25T12:20:45.489Z,30.63
2022-07-25T12:21:42.164Z,30.91
2022-07-25T12:22:38.809Z,31.41
2022-07-25T12:23:35.988Z,31.62
2022-07-25T12:24:32.590Z,31.89
2022-07-25T12:25:31.170Z,31.88
2022-07-25T12:26:28.135Z,31.60
2022-07-25T12:27:24.824Z,31.20
2022-07-25T12:28:21.636Z,31.43
2022-07-25T12:29:18.342Z,31.43
2022-07-25T12:30:15.848Z,31.72
2022-07-25T12:31:12.709Z,30.72
2022-07-25T12:32:09.552Z,31.32
2022-07-25T12:33:06.723Z,31.79